sensor_id;sensor_type;location;lat;lon;timestamp;temperature;humidity
4655;DHT22;2340;47.814;9.798;2023-05-06T00:01:40;13.90;99.90
4655;DHT22;2340;47.814;9.798;2023-05-06T00:04:05;13.80;99.90
4655;DHT22;2340;47.814;9.798;2023-05-06T00:06:31;13.80;99.90
4655;DHT22;2340;47.814;9.798;2023-05-06T00:08:57;13.90;99.90
4655;DHT22;2340;47.814;9.798;2023-05-06T00:11:23;13.90;99.90
4655;DHT22;2340;47.814;9.798;2023-05-06T00:13:49;13.90;99.90
4655;DHT22;2340;47.814;9.798;2023-05-06T00:16:14;13.90;99.90
4655;DHT22;2340;47.814;9.798;2023-05-06T00:18:40;13.90;99.90
4655;DHT22;2340;47.814;9.798;2023-05-06T00:21:06;13.90;99.90
4655;DHT22;2340;47.814;9.798;2023-05-06T00:23:31;13.80;99.90
4655;DHT22;2340;47.814;9.798;2023-05-06T00:25:57;13.80;99.90
4655;DHT22;2340;47.814;9.798;2023-05-06T00:28:23;13.80;99.90
4655;DHT22;2340;47.814;9.798;2023-05-06T00:30:48;13.80;99.90
4655;DHT22;2340;47.814;9.798;2023-05-06T00:33:14;13.80;99.90
4655;DHT22;2340;47.814;9.798;2023-05-06T00:35:39;13.70;99.90
4655;DHT22;2340;47.814;9.798;2023-05-06T00:38:08;13.80;99.90
4655;DHT22;2340;47.814;9.798;2023-05-06T00:40:34;13.80;99.90
4655;DHT22;2340;47.814;9.798;2023-05-06T00:43:00;13.80;99.90
4655;DHT22;2340;47.814;9.798;2023-05-06T00:45:25;13.70;99.90
4655;DHT22;2340;47.814;9.798;2023-05-06T00:47:51;13.70;99.90
4655;DHT22;2340;47.814;9.798;2023-05-06T00:50:17;13.70;99.90
4655;DHT22;2340;47.814;9.798;2023-05-06T00:52:42;13.70;99.90
4655;DHT22;2340;47.814;9.798;2023-05-06T00:55:08;13.70;99.90
4655;DHT22;2340;47.814;9.798;2023-05-06T00:57:34;13.70;99.90
4655;DHT22;2340;47.814;9.798;2023-05-06T00:59:59;13.70;99.90
4655;DHT22;2340;47.814;9.798;2023-05-06T01:02:25;13.70;99.90
4655;DHT22;2340;47.814;9.798;2023-05-06T01:04:50;13.70;99.90
4655;DHT22;2340;47.814;9.798;2023-05-06T01:17:17;13.60;99.90
4655;DHT22;2340;47.814;9.798;2023-05-06T01:19:43;13.60;99.90
4655;DHT22;2340;47.814;9.798;2023-05-06T01:22:10;13.50;99.90
4655;DHT22;2340;47.814;9.798;2023-05-06T01:24:38;13.50;99.90
4655;DHT22;2340;47.814;9.798;2023-05-06T01:27:04;13.50;99.90
4655;DHT22;2340;47.814;9.798;2023-05-06T01:29:30;13.60;99.90
4655;DHT22;2340;47.814;9.798;2023-05-06T01:31:56;13.50;99.90
4655;DHT22;2340;47.814;9.798;2023-05-06T01:34:27;13.60;99.90
4655;DHT22;2340;47.814;9.798;2023-05-06T01:39:33;13.50;99.90
4655;DHT22;2340;47.814;9.798;2023-05-06T01:41:59;13.50;99.90
4655;DHT22;2340;47.814;9.798;2023-05-06T01:44:26;13.50;99.90
4655;DHT22;2340;47.814;9.798;2023-05-06T01:46:51;13.50;99.90
4655;DHT22;2340;47.814;9.798;2023-05-06T01:49:18;13.60;99.90
4655;DHT22;2340;47.814;9.798;2023-05-06T01:51:47;13.50;99.90
4655;DHT22;2340;47.814;9.798;2023-05-06T01:54:13;13.60;99.90
4655;DHT22;2340;47.814;9.798;2023-05-06T01:56:38;13.60;99.90
4655;DHT22;2340;47.814;9.798;2023-05-06T01:59:04;13.60;99.90
4655;DHT22;2340;47.814;9.798;2023-05-06T02:01:30;13.60;99.90
4655;DHT22;2340;47.814;9.798;2023-05-06T02:03:55;13.60;99.90
4655;DHT22;2340;47.814;9.798;2023-05-06T02:06:20;13.60;99.90
4655;DHT22;2340;47.814;9.798;2023-05-06T02:08:46;13.60;99.90
4655;DHT22;2340;47.814;9.798;2023-05-06T02:11:12;13.60;99.90
4655;DHT22;2340;47.814;9.798;2023-05-06T02:13:37;13.50;99.90
4655;DHT22;2340;47.814;9.798;2023-05-06T02:16:03;13.60;99.90
4655;DHT22;2340;47.814;9.798;2023-05-06T02:18:28;13.50;99.90
4655;DHT22;2340;47.814;9.798;2023-05-06T02:20:53;13.50;99.90
4655;DHT22;2340;47.814;9.798;2023-05-06T02:23:19;13.60;99.90
4655;DHT22;2340;47.814;9.798;2023-05-06T02:25:45;13.50;99.90
4655;DHT22;2340;47.814;9.798;2023-05-06T02:28:10;13.40;99.90
4655;DHT22;2340;47.814;9.798;2023-05-06T02:30:36;13.60;99.90
4655;DHT22;2340;47.814;9.798;2023-05-06T02:33:01;13.40;99.90
4655;DHT22;2340;47.814;9.798;2023-05-06T02:35:27;13.50;99.90
4655;DHT22;2340;47.814;9.798;2023-05-06T02:37:52;13.40;99.90
4655;DHT22;2340;47.814;9.798;2023-05-06T02:40:18;13.40;99.90
4655;DHT22;2340;47.814;9.798;2023-05-06T02:42:43;13.40;99.90
4655;DHT22;2340;47.814;9.798;2023-05-06T02:45:09;13.40;99.90
4655;DHT22;2340;47.814;9.798;2023-05-06T02:47:34;13.40;99.90
4655;DHT22;2340;47.814;9.798;2023-05-06T02:50:00;13.40;99.90
4655;DHT22;2340;47.814;9.798;2023-05-06T02:52:26;13.40;99.90
4655;DHT22;2340;47.814;9.798;2023-05-06T02:54:51;13.40;99.90
4655;DHT22;2340;47.814;9.798;2023-05-06T02:57:17;13.30;99.90
4655;DHT22;2340;47.814;9.798;2023-05-06T02:59:42;13.30;99.90
4655;DHT22;2340;47.814;9.798;2023-05-06T03:02:08;13.30;99.90
4655;DHT22;2340;47.814;9.798;2023-05-06T03:04:33;13.30;99.90
4655;DHT22;2340;47.814;9.798;2023-05-06T03:06:59;13.30;99.90
4655;DHT22;2340;47.814;9.798;2023-05-06T03:09:24;13.30;99.90
4655;DHT22;2340;47.814;9.798;2023-05-06T03:11:50;13.40;99.90
4655;DHT22;2340;47.814;9.798;2023-05-06T03:14:15;13.40;99.90
4655;DHT22;2340;47.814;9.798;2023-05-06T03:16:41;13.30;99.90
4655;DHT22;2340;47.814;9.798;2023-05-06T03:19:06;13.30;99.90
4655;DHT22;2340;47.814;9.798;2023-05-06T03:21:32;13.30;99.90
4655;DHT22;2340;47.814;9.798;2023-05-06T03:23:57;13.30;99.90
4655;DHT22;2340;47.814;9.798;2023-05-06T03:26:23;13.30;99.90
4655;DHT22;2340;47.814;9.798;2023-05-06T03:28:48;13.40;99.90
4655;DHT22;2340;47.814;9.798;2023-05-06T03:31:14;13.30;99.90
4655;DHT22;2340;47.814;9.798;2023-05-06T03:33:40;13.30;99.90
4655;DHT22;2340;47.814;9.798;2023-05-06T03:36:05;13.30;99.90
4655;DHT22;2340;47.814;9.798;2023-05-06T03:38:31;13.30;99.90
4655;DHT22;2340;47.814;9.798;2023-05-06T03:40:56;13.30;99.90
4655;DHT22;2340;47.814;9.798;2023-05-06T03:43:22;13.30;99.90
4655;DHT22;2340;47.814;9.798;2023-05-06T03:45:47;13.30;99.90
4655;DHT22;2340;47.814;9.798;2023-05-06T03:48:13;13.30;99.90
4655;DHT22;2340;47.814;9.798;2023-05-06T03:50:38;13.30;99.90
4655;DHT22;2340;47.814;9.798;2023-05-06T03:53:04;13.30;99.90
4655;DHT22;2340;47.814;9.798;2023-05-06T03:55:30;13.30;99.90
4655;DHT22;2340;47.814;9.798;2023-05-06T03:57:56;13.30;99.90
4655;DHT22;2340;47.814;9.798;2023-05-06T04:00:21;13.20;99.90
4655;DHT22;2340;47.814;9.798;2023-05-06T04:02:47;13.30;99.90
4655;DHT22;2340;47.814;9.798;2023-05-06T04:05:12;13.20;99.90
4655;DHT22;2340;47.814;9.798;2023-05-06T04:07:38;13.30;99.90
4655;DHT22;2340;47.814;9.798;2023-05-06T04:10:03;13.20;99.90
4655;DHT22;2340;47.814;9.798;2023-05-06T04:12:29;13.30;99.90
4655;DHT22;2340;47.814;9.798;2023-05-06T04:14:55;13.20;99.90
4655;DHT22;2340;47.814;9.798;2023-05-06T04:17:20;13.30;99.90
4655;DHT22;2340;47.814;9.798;2023-05-06T04:19:46;13.20;99.90
4655;DHT22;2340;47.814;9.798;2023-05-06T04:22:11;13.30;99.90
4655;DHT22;2340;47.814;9.798;2023-05-06T04:24:37;13.30;99.90
4655;DHT22;2340;47.814;9.798;2023-05-06T04:27:02;13.40;99.90
4655;DHT22;2340;47.814;9.798;2023-05-06T04:29:28;13.40;99.90
4655;DHT22;2340;47.814;9.798;2023-05-06T04:31:54;13.40;99.90
4655;DHT22;2340;47.814;9.798;2023-05-06T04:34:19;13.40;99.90
4655;DHT22;2340;47.814;9.798;2023-05-06T04:36:45;13.40;99.90
4655;DHT22;2340;47.814;9.798;2023-05-06T04:39:12;13.40;99.90
4655;DHT22;2340;47.814;9.798;2023-05-06T04:41:38;13.30;99.90
4655;DHT22;2340;47.814;9.798;2023-05-06T04:44:03;13.30;99.90
4655;DHT22;2340;47.814;9.798;2023-05-06T04:46:29;13.30;99.90
4655;DHT22;2340;47.814;9.798;2023-05-06T04:48:54;13.30;99.90
4655;DHT22;2340;47.814;9.798;2023-05-06T04:51:22;13.40;99.90
4655;DHT22;2340;47.814;9.798;2023-05-06T04:53:47;13.40;99.90
4655;DHT22;2340;47.814;9.798;2023-05-06T04:56:13;13.40;99.90
4655;DHT22;2340;47.814;9.798;2023-05-06T04:58:38;13.40;99.90
4655;DHT22;2340;47.814;9.798;2023-05-06T05:01:06;13.40;99.90
4655;DHT22;2340;47.814;9.798;2023-05-06T05:03:32;13.40;99.90
4655;DHT22;2340;47.814;9.798;2023-05-06T05:05:57;13.50;99.90
4655;DHT22;2340;47.814;9.798;2023-05-06T05:08:23;13.50;99.90
4655;DHT22;2340;47.814;9.798;2023-05-06T05:10:48;13.60;99.90
4655;DHT22;2340;47.814;9.798;2023-05-06T05:13:13;13.60;99.90
4655;DHT22;2340;47.814;9.798;2023-05-06T05:15:39;13.60;99.90
4655;DHT22;2340;47.814;9.798;2023-05-06T05:18:05;13.70;99.90
4655;DHT22;2340;47.814;9.798;2023-05-06T05:20:31;13.70;99.90
4655;DHT22;2340;47.814;9.798;2023-05-06T05:22:56;13.80;99.90
4655;DHT22;2340;47.814;9.798;2023-05-06T05:25:22;13.90;99.90
4655;DHT22;2340;47.814;9.798;2023-05-06T05:27:47;13.90;99.90
4655;DHT22;2340;47.814;9.798;2023-05-06T05:30:13;14.00;99.90
4655;DHT22;2340;47.814;9.798;2023-05-06T05:32:38;14.00;99.90
4655;DHT22;2340;47.814;9.798;2023-05-06T05:35:04;14.00;99.90
4655;DHT22;2340;47.814;9.798;2023-05-06T05:37:30;14.10;99.90
4655;DHT22;2340;47.814;9.798;2023-05-06T05:39:55;14.10;99.90
4655;DHT22;2340;47.814;9.798;2023-05-06T05:42:21;14.10;99.90
4655;DHT22;2340;47.814;9.798;2023-05-06T05:44:46;14.20;99.90
4655;DHT22;2340;47.814;9.798;2023-05-06T05:47:12;14.20;99.90
4655;DHT22;2340;47.814;9.798;2023-05-06T05:49:37;14.30;99.90
4655;DHT22;2340;47.814;9.798;2023-05-06T05:52:03;14.30;99.90
4655;DHT22;2340;47.814;9.798;2023-05-06T05:54:29;14.40;99.90
4655;DHT22;2340;47.814;9.798;2023-05-06T05:56:54;14.50;99.90
4655;DHT22;2340;47.814;9.798;2023-05-06T05:59:20;14.50;99.90
4655;DHT22;2340;47.814;9.798;2023-05-06T06:01:45;14.60;99.90
4655;DHT22;2340;47.814;9.798;2023-05-06T06:04:10;14.60;99.90
4655;DHT22;2340;47.814;9.798;2023-05-06T06:06:36;14.70;99.90
4655;DHT22;2340;47.814;9.798;2023-05-06T06:09:02;14.70;99.90
4655;DHT22;2340;47.814;9.798;2023-05-06T06:11:27;14.70;99.90
4655;DHT22;2340;47.814;9.798;2023-05-06T06:13:53;14.70;99.90
4655;DHT22;2340;47.814;9.798;2023-05-06T06:16:18;14.80;99.90
4655;DHT22;2340;47.814;9.798;2023-05-06T06:18:44;14.90;99.90
4655;DHT22;2340;47.814;9.798;2023-05-06T06:21:09;14.90;99.90
4655;DHT22;2340;47.814;9.798;2023-05-06T06:23:35;14.80;99.90
4655;DHT22;2340;47.814;9.798;2023-05-06T06:26:03;14.80;99.90
4655;DHT22;2340;47.814;9.798;2023-05-06T06:28:29;14.80;99.90
4655;DHT22;2340;47.814;9.798;2023-05-06T06:30:55;14.80;99.90
4655;DHT22;2340;47.814;9.798;2023-05-06T06:33:21;14.80;99.90
4655;DHT22;2340;47.814;9.798;2023-05-06T06:35:46;14.70;99.90
4655;DHT22;2340;47.814;9.798;2023-05-06T06:38:12;14.60;99.90
4655;DHT22;2340;47.814;9.798;2023-05-06T06:40:37;14.60;99.90
4655;DHT22;2340;47.814;9.798;2023-05-06T06:43:03;14.70;99.90
4655;DHT22;2340;47.814;9.798;2023-05-06T06:45:28;14.70;99.90
4655;DHT22;2340;47.814;9.798;2023-05-06T06:47:54;14.70;99.90
4655;DHT22;2340;47.814;9.798;2023-05-06T06:50:19;14.80;99.90
4655;DHT22;2340;47.814;9.798;2023-05-06T06:52:45;14.80;99.90
4655;DHT22;2340;47.814;9.798;2023-05-06T06:55:10;14.90;99.90
4655;DHT22;2340;47.814;9.798;2023-05-06T06:57:37;15.00;99.90
4655;DHT22;2340;47.814;9.798;2023-05-06T07:00:03;15.10;99.90
4655;DHT22;2340;47.814;9.798;2023-05-06T07:02:29;15.10;99.90
4655;DHT22;2340;47.814;9.798;2023-05-06T07:04:54;15.30;99.90
4655;DHT22;2340;47.814;9.798;2023-05-06T07:07:20;15.40;99.90
4655;DHT22;2340;47.814;9.798;2023-05-06T07:09:46;15.40;99.90
4655;DHT22;2340;47.814;9.798;2023-05-06T07:12:11;15.30;99.90
4655;DHT22;2340;47.814;9.798;2023-05-06T07:14:37;15.30;99.90
4655;DHT22;2340;47.814;9.798;2023-05-06T07:17:02;15.20;99.90
4655;DHT22;2340;47.814;9.798;2023-05-06T07:19:28;15.20;99.90
4655;DHT22;2340;47.814;9.798;2023-05-06T07:21:53;15.30;99.90
4655;DHT22;2340;47.814;9.798;2023-05-06T07:24:19;15.20;99.90
4655;DHT22;2340;47.814;9.798;2023-05-06T07:26:45;15.30;99.90
4655;DHT22;2340;47.814;9.798;2023-05-06T07:29:11;15.30;99.90
4655;DHT22;2340;47.814;9.798;2023-05-06T07:31:38;15.30;99.90
4655;DHT22;2340;47.814;9.798;2023-05-06T07:34:03;15.30;99.90
4655;DHT22;2340;47.814;9.798;2023-05-06T07:36:29;15.40;99.90
4655;DHT22;2340;47.814;9.798;2023-05-06T07:38:59;15.40;99.90
4655;DHT22;2340;47.814;9.798;2023-05-06T07:41:25;15.60;99.90
4655;DHT22;2340;47.814;9.798;2023-05-06T07:43:50;15.70;99.90
4655;DHT22;2340;47.814;9.798;2023-05-06T07:46:16;15.60;99.90
4655;DHT22;2340;47.814;9.798;2023-05-06T07:48:41;15.60;99.90
4655;DHT22;2340;47.814;9.798;2023-05-06T07:51:07;15.70;99.90
4655;DHT22;2340;47.814;9.798;2023-05-06T07:53:32;15.70;99.90
4655;DHT22;2340;47.814;9.798;2023-05-06T07:55:58;15.70;99.90
4655;DHT22;2340;47.814;9.798;2023-05-06T07:58:29;15.90;99.90
4655;DHT22;2340;47.814;9.798;2023-05-06T08:00:55;16.10;99.90
4655;DHT22;2340;47.814;9.798;2023-05-06T08:03:20;16.40;99.90
4655;DHT22;2340;47.814;9.798;2023-05-06T08:05:46;16.60;99.90
4655;DHT22;2340;47.814;9.798;2023-05-06T08:08:11;16.70;99.90
4655;DHT22;2340;47.814;9.798;2023-05-06T08:10:37;16.70;99.90
4655;DHT22;2340;47.814;9.798;2023-05-06T08:13:02;16.80;99.90
4655;DHT22;2340;47.814;9.798;2023-05-06T08:15:28;16.80;99.90
4655;DHT22;2340;47.814;9.798;2023-05-06T08:17:53;16.70;99.90
4655;DHT22;2340;47.814;9.798;2023-05-06T08:20:20;16.70;99.90
4655;DHT22;2340;47.814;9.798;2023-05-06T08:22:45;16.80;99.90
4655;DHT22;2340;47.814;9.798;2023-05-06T08:25:11;16.80;99.90
4655;DHT22;2340;47.814;9.798;2023-05-06T08:27:36;16.90;99.90
4655;DHT22;2340;47.814;9.798;2023-05-06T08:30:02;17.00;99.90
4655;DHT22;2340;47.814;9.798;2023-05-06T08:32:27;17.10;99.90
4655;DHT22;2340;47.814;9.798;2023-05-06T08:34:53;17.10;99.90
4655;DHT22;2340;47.814;9.798;2023-05-06T08:37:18;17.10;99.90
4655;DHT22;2340;47.814;9.798;2023-05-06T08:39:44;17.20;99.90
4655;DHT22;2340;47.814;9.798;2023-05-06T08:42:09;17.20;99.90
4655;DHT22;2340;47.814;9.798;2023-05-06T08:44:38;17.20;99.90
4655;DHT22;2340;47.814;9.798;2023-05-06T08:47:04;17.20;99.90
4655;DHT22;2340;47.814;9.798;2023-05-06T08:49:29;17.20;99.90
4655;DHT22;2340;47.814;9.798;2023-05-06T08:51:55;17.20;99.90
4655;DHT22;2340;47.814;9.798;2023-05-06T08:54:22;17.30;99.90
4655;DHT22;2340;47.814;9.798;2023-05-06T08:56:50;17.40;99.90
4655;DHT22;2340;47.814;9.798;2023-05-06T08:59:24;17.40;99.90
4655;DHT22;2340;47.814;9.798;2023-05-06T09:01:52;17.50;99.90
4655;DHT22;2340;47.814;9.798;2023-05-06T09:04:18;17.60;99.90
4655;DHT22;2340;47.814;9.798;2023-05-06T09:06:44;17.60;99.90
4655;DHT22;2340;47.814;9.798;2023-05-06T09:09:09;17.60;99.90
4655;DHT22;2340;47.814;9.798;2023-05-06T09:11:37;17.70;99.90
4655;DHT22;2340;47.814;9.798;2023-05-06T09:14:09;17.70;99.90
4655;DHT22;2340;47.814;9.798;2023-05-06T09:16:35;17.80;99.90
4655;DHT22;2340;47.814;9.798;2023-05-06T09:19:00;18.00;99.90
4655;DHT22;2340;47.814;9.798;2023-05-06T09:24:22;18.30;99.90
4655;DHT22;2340;47.814;9.798;2023-05-06T09:26:47;18.30;99.90
4655;DHT22;2340;47.814;9.798;2023-05-06T09:29:15;18.30;99.90
4655;DHT22;2340;47.814;9.798;2023-05-06T09:31:41;18.30;99.90
4655;DHT22;2340;47.814;9.798;2023-05-06T09:34:07;18.30;99.90
4655;DHT22;2340;47.814;9.798;2023-05-06T09:36:32;18.40;99.90
4655;DHT22;2340;47.814;9.798;2023-05-06T09:38:58;18.50;99.90
4655;DHT22;2340;47.814;9.798;2023-05-06T09:41:24;18.50;99.90
4655;DHT22;2340;47.814;9.798;2023-05-06T09:43:53;18.70;99.90
4655;DHT22;2340;47.814;9.798;2023-05-06T09:46:22;18.80;99.90
4655;DHT22;2340;47.814;9.798;2023-05-06T09:48:51;19.00;99.90
4655;DHT22;2340;47.814;9.798;2023-05-06T09:51:17;19.10;99.90
4655;DHT22;2340;47.814;9.798;2023-05-06T09:53:43;19.00;99.90
4655;DHT22;2340;47.814;9.798;2023-05-06T09:56:08;19.00;99.90
4655;DHT22;2340;47.814;9.798;2023-05-06T09:58:35;18.90;99.90
4655;DHT22;2340;47.814;9.798;2023-05-06T10:01:01;18.80;99.90
4655;DHT22;2340;47.814;9.798;2023-05-06T10:03:28;18.70;99.90
4655;DHT22;2340;47.814;9.798;2023-05-06T10:05:54;18.70;99.90
4655;DHT22;2340;47.814;9.798;2023-05-06T10:08:24;18.70;99.90
4655;DHT22;2340;47.814;9.798;2023-05-06T10:10:50;18.70;99.90
4655;DHT22;2340;47.814;9.798;2023-05-06T10:13:16;18.60;99.90
4655;DHT22;2340;47.814;9.798;2023-05-06T10:15:45;18.70;99.90
4655;DHT22;2340;47.814;9.798;2023-05-06T10:18:12;18.70;99.90
4655;DHT22;2340;47.814;9.798;2023-05-06T10:20:39;18.70;99.90
4655;DHT22;2340;47.814;9.798;2023-05-06T10:23:08;18.80;99.90
4655;DHT22;2340;47.814;9.798;2023-05-06T10:25:38;18.90;99.90
4655;DHT22;2340;47.814;9.798;2023-05-06T10:28:07;19.20;99.90
4655;DHT22;2340;47.814;9.798;2023-05-06T10:30:33;19.50;99.90
4655;DHT22;2340;47.814;9.798;2023-05-06T10:33:02;19.80;99.90
4655;DHT22;2340;47.814;9.798;2023-05-06T10:37:53;19.90;99.90
4655;DHT22;2340;47.814;9.798;2023-05-06T10:40:21;19.70;99.90
4655;DHT22;2340;47.814;9.798;2023-05-06T10:42:47;19.60;99.90
4655;DHT22;2340;47.814;9.798;2023-05-06T10:45:12;19.70;99.90
4655;DHT22;2340;47.814;9.798;2023-05-06T10:50:18;20.20;99.90
4655;DHT22;2340;47.814;9.798;2023-05-06T10:52:44;20.50;99.90
4655;DHT22;2340;47.814;9.798;2023-05-06T10:57:55;20.80;99.90
4655;DHT22;2340;47.814;9.798;2023-05-06T11:00:21;20.80;99.90
4655;DHT22;2340;47.814;9.798;2023-05-06T11:02:55;20.70;99.90
4655;DHT22;2340;47.814;9.798;2023-05-06T11:05:21;20.60;99.90
4655;DHT22;2340;47.814;9.798;2023-05-06T11:07:48;20.40;99.90
4655;DHT22;2340;47.814;9.798;2023-05-06T11:10:14;20.20;99.90
4655;DHT22;2340;47.814;9.798;2023-05-06T11:15:17;20.00;99.90
4655;DHT22;2340;47.814;9.798;2023-05-06T11:17:43;20.00;99.90
4655;DHT22;2340;47.814;9.798;2023-05-06T11:20:19;19.90;99.90
4655;DHT22;2340;47.814;9.798;2023-05-06T11:22:44;19.80;99.90
4655;DHT22;2340;47.814;9.798;2023-05-06T11:25:10;19.80;99.90
4655;DHT22;2340;47.814;9.798;2023-05-06T11:27:36;19.80;99.90
4655;DHT22;2340;47.814;9.798;2023-05-06T11:30:02;19.80;99.90
4655;DHT22;2340;47.814;9.798;2023-05-06T11:32:28;19.80;99.90
4655;DHT22;2340;47.814;9.798;2023-05-06T11:34:54;19.70;99.90
4655;DHT22;2340;47.814;9.798;2023-05-06T11:37:24;19.70;99.90
4655;DHT22;2340;47.814;9.798;2023-05-06T11:39:50;19.70;99.90
4655;DHT22;2340;47.814;9.798;2023-05-06T11:42:22;19.70;99.90
4655;DHT22;2340;47.814;9.798;2023-05-06T11:44:48;19.70;99.90
4655;DHT22;2340;47.814;9.798;2023-05-06T11:47:14;19.80;99.90
4655;DHT22;2340;47.814;9.798;2023-05-06T11:49:40;19.80;99.90
4655;DHT22;2340;47.814;9.798;2023-05-06T11:52:06;19.80;99.90
4655;DHT22;2340;47.814;9.798;2023-05-06T11:54:33;19.80;99.90
4655;DHT22;2340;47.814;9.798;2023-05-06T11:56:58;19.80;99.90
4655;DHT22;2340;47.814;9.798;2023-05-06T11:59:26;19.70;99.90
4655;DHT22;2340;47.814;9.798;2023-05-06T12:01:51;19.70;99.90
4655;DHT22;2340;47.814;9.798;2023-05-06T12:04:17;19.70;99.90
4655;DHT22;2340;47.814;9.798;2023-05-06T12:06:42;19.70;99.90
4655;DHT22;2340;47.814;9.798;2023-05-06T12:09:10;20.20;99.90
4655;DHT22;2340;47.814;9.798;2023-05-06T12:11:36;21.10;99.90
4655;DHT22;2340;47.814;9.798;2023-05-06T12:14:03;21.60;99.90
4655;DHT22;2340;47.814;9.798;2023-05-06T12:16:29;21.90;99.90
4655;DHT22;2340;47.814;9.798;2023-05-06T12:18:55;21.90;99.90
4655;DHT22;2340;47.814;9.798;2023-05-06T12:21:24;22.30;99.90
4655;DHT22;2340;47.814;9.798;2023-05-06T12:23:57;23.20;99.90
4655;DHT22;2340;47.814;9.798;2023-05-06T12:26:23;24.10;99.90
4655;DHT22;2340;47.814;9.798;2023-05-06T12:29:07;25.00;99.90
4655;DHT22;2340;47.814;9.798;2023-05-06T12:31:33;25.70;99.90
4655;DHT22;2340;47.814;9.798;2023-05-06T12:33:59;26.20;99.90
4655;DHT22;2340;47.814;9.798;2023-05-06T12:36:25;26.40;99.90
4655;DHT22;2340;47.814;9.798;2023-05-06T12:41:17;26.00;99.90
4655;DHT22;2340;47.814;9.798;2023-05-06T12:43:42;25.80;99.90
4655;DHT22;2340;47.814;9.798;2023-05-06T12:46:08;25.20;99.90
4655;DHT22;2340;47.814;9.798;2023-05-06T12:48:34;24.70;99.90
4655;DHT22;2340;47.814;9.798;2023-05-06T12:50:59;24.00;99.90
4655;DHT22;2340;47.814;9.798;2023-05-06T12:53:32;23.90;99.90
4655;DHT22;2340;47.814;9.798;2023-05-06T12:55:58;23.80;99.90
4655;DHT22;2340;47.814;9.798;2023-05-06T12:58:23;24.30;99.90
4655;DHT22;2340;47.814;9.798;2023-05-06T13:00:48;24.90;99.90
4655;DHT22;2340;47.814;9.798;2023-05-06T13:03:14;25.60;99.90
4655;DHT22;2340;47.814;9.798;2023-05-06T13:05:40;26.40;99.90
4655;DHT22;2340;47.814;9.798;2023-05-06T13:08:05;27.10;99.90
4655;DHT22;2340;47.814;9.798;2023-05-06T13:10:31;26.80;99.90
4655;DHT22;2340;47.814;9.798;2023-05-06T13:12:57;26.30;99.90
4655;DHT22;2340;47.814;9.798;2023-05-06T13:15:22;26.30;99.90
4655;DHT22;2340;47.814;9.798;2023-05-06T13:17:48;26.30;99.90
4655;DHT22;2340;47.814;9.798;2023-05-06T13:20:13;25.80;99.90
4655;DHT22;2340;47.814;9.798;2023-05-06T13:22:40;25.60;99.90
4655;DHT22;2340;47.814;9.798;2023-05-06T13:25:05;25.60;99.90
4655;DHT22;2340;47.814;9.798;2023-05-06T13:27:31;25.90;99.90
4655;DHT22;2340;47.814;9.798;2023-05-06T13:29:57;26.40;99.90
4655;DHT22;2340;47.814;9.798;2023-05-06T13:32:22;27.20;99.90
4655;DHT22;2340;47.814;9.798;2023-05-06T13:34:48;27.50;99.90
4655;DHT22;2340;47.814;9.798;2023-05-06T13:37:13;27.50;99.90
4655;DHT22;2340;47.814;9.798;2023-05-06T13:39:39;27.80;99.90
4655;DHT22;2340;47.814;9.798;2023-05-06T13:42:04;28.20;99.90
4655;DHT22;2340;47.814;9.798;2023-05-06T13:44:30;28.40;99.90
4655;DHT22;2340;47.814;9.798;2023-05-06T13:46:55;28.60;99.90
4655;DHT22;2340;47.814;9.798;2023-05-06T13:49:21;28.10;99.90
4655;DHT22;2340;47.814;9.798;2023-05-06T13:51:46;28.30;99.90
4655;DHT22;2340;47.814;9.798;2023-05-06T13:54:12;28.40;99.90
4655;DHT22;2340;47.814;9.798;2023-05-06T13:56:37;28.40;99.90
4655;DHT22;2340;47.814;9.798;2023-05-06T13:59:03;28.20;99.90
4655;DHT22;2340;47.814;9.798;2023-05-06T14:01:28;27.80;99.90
4655;DHT22;2340;47.814;9.798;2023-05-06T14:03:54;27.00;99.90
4655;DHT22;2340;47.814;9.798;2023-05-06T14:06:19;26.30;99.90
4655;DHT22;2340;47.814;9.798;2023-05-06T14:08:45;25.80;99.90
4655;DHT22;2340;47.814;9.798;2023-05-06T14:11:11;25.90;99.90
4655;DHT22;2340;47.814;9.798;2023-05-06T14:13:36;26.40;99.90
4655;DHT22;2340;47.814;9.798;2023-05-06T14:16:02;26.70;99.90
4655;DHT22;2340;47.814;9.798;2023-05-06T14:18:27;26.60;99.90
4655;DHT22;2340;47.814;9.798;2023-05-06T14:20:53;26.50;99.90
4655;DHT22;2340;47.814;9.798;2023-05-06T14:23:19;26.20;99.90
4655;DHT22;2340;47.814;9.798;2023-05-06T14:25:45;25.70;99.90
4655;DHT22;2340;47.814;9.798;2023-05-06T14:28:10;25.20;99.90
4655;DHT22;2340;47.814;9.798;2023-05-06T14:30:37;24.80;99.90
4655;DHT22;2340;47.814;9.798;2023-05-06T14:33:03;24.60;99.90
4655;DHT22;2340;47.814;9.798;2023-05-06T14:35:28;24.30;99.90
4655;DHT22;2340;47.814;9.798;2023-05-06T14:37:54;24.20;99.90
4655;DHT22;2340;47.814;9.798;2023-05-06T14:40:19;24.60;99.90
4655;DHT22;2340;47.814;9.798;2023-05-06T14:42:45;24.80;99.90
4655;DHT22;2340;47.814;9.798;2023-05-06T14:45:11;25.10;99.90
4655;DHT22;2340;47.814;9.798;2023-05-06T14:47:38;25.40;99.90
4655;DHT22;2340;47.814;9.798;2023-05-06T14:50:05;25.50;99.90
4655;DHT22;2340;47.814;9.798;2023-05-06T14:52:31;25.80;99.90
4655;DHT22;2340;47.814;9.798;2023-05-06T14:54:56;26.00;99.90
4655;DHT22;2340;47.814;9.798;2023-05-06T14:57:22;26.30;99.90
4655;DHT22;2340;47.814;9.798;2023-05-06T14:59:48;26.40;99.90
4655;DHT22;2340;47.814;9.798;2023-05-06T15:02:14;26.60;99.90
4655;DHT22;2340;47.814;9.798;2023-05-06T15:04:39;26.40;99.90
4655;DHT22;2340;47.814;9.798;2023-05-06T15:07:05;26.30;99.90
4655;DHT22;2340;47.814;9.798;2023-05-06T15:09:30;26.30;99.90
4655;DHT22;2340;47.814;9.798;2023-05-06T15:11:56;25.80;99.90
4655;DHT22;2340;47.814;9.798;2023-05-06T15:14:21;25.10;99.90
4655;DHT22;2340;47.814;9.798;2023-05-06T15:16:47;24.80;99.90
4655;DHT22;2340;47.814;9.798;2023-05-06T15:19:12;24.60;99.90
4655;DHT22;2340;47.814;9.798;2023-05-06T15:21:38;24.70;99.90
4655;DHT22;2340;47.814;9.798;2023-05-06T15:24:03;25.00;99.90
4655;DHT22;2340;47.814;9.798;2023-05-06T15:26:29;25.20;99.90
4655;DHT22;2340;47.814;9.798;2023-05-06T15:28:54;25.00;99.90
4655;DHT22;2340;47.814;9.798;2023-05-06T15:31:20;24.80;99.90
4655;DHT22;2340;47.814;9.798;2023-05-06T15:33:45;24.50;99.90
4655;DHT22;2340;47.814;9.798;2023-05-06T15:36:11;24.30;99.90
4655;DHT22;2340;47.814;9.798;2023-05-06T15:41:14;23.90;99.90
4655;DHT22;2340;47.814;9.798;2023-05-06T15:43:40;23.90;99.90
4655;DHT22;2340;47.814;9.798;2023-05-06T15:46:06;23.70;99.90
4655;DHT22;2340;47.814;9.798;2023-05-06T15:48:31;23.50;99.90
4655;DHT22;2340;47.814;9.798;2023-05-06T15:50:57;23.40;99.90
4655;DHT22;2340;47.814;9.798;2023-05-06T15:53:22;23.50;99.90
4655;DHT22;2340;47.814;9.798;2023-05-06T15:55:48;23.70;99.90
4655;DHT22;2340;47.814;9.798;2023-05-06T15:58:14;23.70;99.90
4655;DHT22;2340;47.814;9.798;2023-05-06T16:00:39;23.60;99.90
4655;DHT22;2340;47.814;9.798;2023-05-06T16:03:05;23.50;99.90
4655;DHT22;2340;47.814;9.798;2023-05-06T16:05:31;23.40;99.90
4655;DHT22;2340;47.814;9.798;2023-05-06T16:07:57;23.40;99.90
4655;DHT22;2340;47.814;9.798;2023-05-06T16:10:23;23.40;99.90
4655;DHT22;2340;47.814;9.798;2023-05-06T16:12:48;23.40;99.90
4655;DHT22;2340;47.814;9.798;2023-05-06T16:15:14;23.30;99.90
4655;DHT22;2340;47.814;9.798;2023-05-06T16:17:39;23.30;99.90
4655;DHT22;2340;47.814;9.798;2023-05-06T16:20:05;23.30;99.90
4655;DHT22;2340;47.814;9.798;2023-05-06T16:22:33;23.20;99.90
4655;DHT22;2340;47.814;9.798;2023-05-06T16:24:58;23.20;99.90